createdAt,value
2022-08-04T00:00:39.676Z,100.00
2022-08-04T00:02:49.138Z,100.00
2022-08-04T00:04:59.529Z,100.00
2022-08-04T00:07:10.107Z,100.00
2022-08-04T00:09:18.975Z,100.00
2022-08-04T00:11:23.561Z,100.00
2022-08-04T00:13:28.206Z,100.00
2022-08-04T00:15:33.819Z,100.00
2022-08-04T00:17:41.369Z,100.00
2022-08-04T00:19:49.524Z,100.00
2022-08-04T00:21:57.744Z,100.00
2022-08-04T00:24:10.439Z,100.00
2022-08-04T00:26:17.934Z,100.00
2022-08-04T00:28:22.599Z,100.00
2022-08-04T00:30:26.512Z,100.00
2022-08-04T00:32:34.667Z,100.00
2022-08-04T00:34:41.613Z,100.00
2022-08-04T00:36:45.715Z,100.00
2022-08-04T00:38:49.868Z,100.00
2022-08-04T00:41:02.565Z,100.00
2022-08-04T00:43:09.236Z,100.00
2022-08-04T00:45:19.293Z,100.00
2022-08-04T00:47:35.085Z,100.00
2022-08-04T00:49:57.597Z,100.00
2022-08-04T00:52:32.455Z,100.00
2022-08-04T00:54:52.488Z,100.00
2022-08-04T00:57:33.501Z,100.00
2022-08-04T00:59:44.120Z,100.00
2022-08-04T01:02:09.468Z,100.00
2022-08-04T01:04:16.277Z,100.00
2022-08-04T01:06:58.376Z,100.00
2022-08-04T01:09:21.397Z,100.00
2022-08-04T01:11:25.377Z,100.00
2022-08-04T01:13:31.850Z,100.00
2022-08-04T01:16:01.669Z,100.00
2022-08-04T01:18:07.095Z,100.00
2022-08-04T01:20:11.933Z,100.00
2022-08-04T01:22:16.082Z,100.00
2022-08-04T01:24:31.837Z,100.00
2022-08-04T01:26:57.404Z,100.00
2022-08-04T01:29:06.152Z,100.00
2022-08-04T01:31:15.847Z,100.00
2022-08-04T01:33:26.639Z,100.00
2022-08-04T01:35:46.756Z,100.00
2022-08-04T01:37:54.463Z,100.00
2022-08-04T01:40:08.028Z,100.00
2022-08-04T01:42:31.442Z,100.00
2022-08-04T01:44:38.037Z,100.00
2022-08-04T01:46:41.879Z,100.00
2022-08-04T01:48:47.961Z,100.00
2022-08-04T01:50:53.787Z,100.00
2022-08-04T01:52:57.837Z,100.00
2022-08-04T01:55:05.789Z,100.00
2022-08-04T01:57:37.809Z,100.00
2022-08-04T01:59:39.267Z,100.00
2022-08-04T02:01:43.268Z,100.00
2022-08-04T02:04:18.259Z,100.00
2022-08-04T02:06:36.634Z,100.00
2022-08-04T02:08:53.740Z,100.00
2022-08-04T02:11:06.200Z,100.00
2022-08-04T02:13:15.970Z,100.00
2022-08-04T02:15:27.602Z,100.00
2022-08-04T02:17:33.729Z,100.00
2022-08-04T02:19:43.324Z,100.00
2022-08-04T02:21:49.942Z,100.00
2022-08-04T02:23:58.238Z,100.00
2022-08-04T02:26:06.120Z,100.00
2022-08-04T02:28:09.994Z,100.00
2022-08-04T02:30:13.587Z,100.00
2022-08-04T02:32:35.163Z,100.00
2022-08-04T02:34:49.507Z,100.00
2022-08-04T02:36:55.843Z,100.00
2022-08-04T02:39:03.644Z,100.00
2022-08-04T02:41:07.824Z,100.00
2022-08-04T02:43:12.736Z,100.00
2022-08-04T02:45:20.098Z,100.00
2022-08-04T02:48:23.571Z,100.00
2022-08-04T02:50:13.322Z,100.00
2022-08-04T02:52:18.181Z,100.00
2022-08-04T02:54:34.846Z,100.00
2022-08-04T02:56:39.887Z,100.00
2022-08-04T02:58:44.536Z,100.00
2022-08-04T03:00:49.283Z,100.00
2022-08-04T03:03:01.730Z,100.00
2022-08-04T03:05:11.070Z,100.00
2022-08-04T03:07:19.151Z,100.00
2022-08-04T03:09:41.326Z,100.00
2022-08-04T03:11:44.841Z,100.00
2022-08-04T03:14:01.434Z,100.00
2022-08-04T03:16:08.970Z,100.00
2022-08-04T03:18:31.122Z,100.00
2022-08-04T03:20:47.286Z,100.00
2022-08-04T03:23:12.435Z,100.00
2022-08-04T03:25:54.288Z,100.00
2022-08-04T03:28:20.035Z,100.00
2022-08-04T03:30:43.753Z,100.00
2022-08-04T03:33:06.239Z,100.00
2022-08-04T03:35:38.784Z,100.00
2022-08-04T03:37:42.741Z,100.00
2022-08-04T03:40:18.686Z,100.00
2022-08-04T03:42:34.861Z,100.00
2022-08-04T03:44:56.882Z,100.00
2022-08-04T03:47:13.584Z,100.00
2022-08-04T03:49:29.231Z,100.00
2022-08-04T03:52:10.128Z,100.00
2022-08-04T03:54:16.902Z,100.00
2022-08-04T03:56:28.004Z,100.00
2022-08-04T03:58:51.767Z,100.00
2022-08-04T04:01:11.085Z,100.00
2022-08-04T04:03:31.326Z,100.00
2022-08-04T04:05:43.151Z,100.00
2022-08-04T04:08:13.716Z,100.00
2022-08-04T04:10:26.795Z,100.00
2022-08-04T04:12:50.970Z,100.00
2022-08-04T04:15:00.810Z,100.00
2022-08-04T04:17:22.697Z,100.00
2022-08-04T04:19:27.157Z,100.00
2022-08-04T04:21:40.910Z,100.00
2022-08-04T04:23:56.025Z,100.00
2022-08-04T04:26:06.042Z,100.00
2022-08-04T04:28:46.089Z,100.00
2022-08-04T04:30:58.833Z,100.00
2022-08-04T04:33:02.942Z,100.00
2022-08-04T04:35:06.576Z,100.00
2022-08-04T04:37:27.506Z,100.00
2022-08-04T04:39:41.209Z,100.00
2022-08-04T04:42:06.733Z,100.00
2022-08-04T04:44:13.054Z,100.00
2022-08-04T04:46:29.914Z,100.00
2022-08-04T04:48:51.980Z,100.00
2022-08-04T04:51:01.778Z,100.00
2022-08-04T04:53:11.221Z,100.00
2022-08-04T04:55:19.582Z,100.00
2022-08-04T04:57:54.715Z,100.00
2022-08-04T04:59:57.491Z,100.00
2022-08-04T05:02:07.763Z,100.00
2022-08-04T05:04:20.642Z,100.00
2022-08-04T05:06:42.810Z,100.00
2022-08-04T05:09:04.717Z,100.00
2022-08-04T05:11:17.425Z,100.00
2022-08-04T05:14:34.756Z,100.00
2022-08-04T05:16:09.858Z,100.00
2022-08-04T05:18:17.479Z,100.00
2022-08-04T05:20:27.235Z,100.00
2022-08-04T05:22:54.003Z,100.00
2022-08-04T05:25:03.493Z,100.00
2022-08-04T05:27:26.987Z,100.00
2022-08-04T05:29:38.042Z,100.00
2022-08-04T05:31:47.634Z,100.00
2022-08-04T05:34:00.671Z,100.00
2022-08-04T05:36:20.708Z,100.00
2022-08-04T05:38:35.367Z,100.00
2022-08-04T05:40:40.040Z,100.00
2022-08-04T05:42:43.658Z,100.00
2022-08-04T05:44:50.911Z,100.00
2022-08-04T05:46:56.907Z,100.00
2022-08-04T05:49:00.471Z,100.00
2022-08-04T05:51:04.809Z,100.00
2022-08-04T05:53:11.484Z,100.00
2022-08-04T05:55:57.328Z,100.00
2022-08-04T05:57:47.561Z,100.00
2022-08-04T05:59:52.400Z,100.00
2022-08-04T06:02:00.423Z,100.00
2022-08-04T06:04:09.538Z,100.00
2022-08-04T06:06:19.452Z,100.00
2022-08-04T06:08:23.093Z,100.00
2022-08-04T06:10:29.918Z,100.00
2022-08-04T06:12:43.526Z,100.00
2022-08-04T06:14:48.623Z,100.00
2022-08-04T06:16:53.817Z,100.00
2022-08-04T06:20:00.536Z,100.00
2022-08-04T06:21:31.349Z,100.00
2022-08-04T06:23:37.716Z,100.00
2022-08-04T06:26:02.612Z,100.00
2022-08-04T06:28:07.462Z,100.00
2022-08-04T06:30:15.078Z,100.00
2022-08-04T06:32:41.697Z,100.00
2022-08-04T06:34:45.999Z,100.00
2022-08-04T06:36:50.242Z,100.00
2022-08-04T06:38:58.828Z,100.00
2022-08-04T06:41:10.345Z,100.00
2022-08-04T06:43:14.526Z,100.00
2022-08-04T06:45:19.170Z,100.00
2022-08-04T06:47:23.565Z,100.00
2022-08-04T06:49:28.413Z,100.00
2022-08-04T06:51:39.982Z,100.00
2022-08-04T06:53:50.950Z,100.00
2022-08-04T06:55:55.188Z,100.00
2022-08-04T06:58:03.145Z,100.00
2022-08-04T07:00:13.027Z,100.00
2022-08-04T07:02:18.617Z,100.00
2022-08-04T07:04:22.379Z,100.00
2022-08-04T07:06:26.587Z,100.00
2022-08-04T07:08:31.060Z,100.00
2022-08-04T07:10:35.392Z,100.00
2022-08-04T07:12:40.385Z,100.00
2022-08-04T07:14:44.979Z,100.00
2022-08-04T07:16:50.088Z,100.00
2022-08-04T07:18:53.825Z,100.00
2022-08-04T07:20:57.667Z,100.00
2022-08-04T07:23:02.856Z,100.00
2022-08-04T07:25:12.859Z,100.00
2022-08-04T07:27:18.377Z,100.00
2022-08-04T07:29:42.479Z,100.00
2022-08-04T07:31:46.769Z,100.00
2022-08-04T07:34:11.566Z,100.00
2022-08-04T07:36:14.787Z,100.00
2022-08-04T07:38:18.609Z,100.00
2022-08-04T07:40:22.427Z,100.00
2022-08-04T07:42:26.301Z,100.00
2022-08-04T07:44:31.602Z,100.00
2022-08-04T07:46:35.714Z,100.00
2022-08-04T07:48:40.086Z,100.00
2022-08-04T07:50:44.641Z,100.00
2022-08-04T07:53:09.000Z,100.00
2022-08-04T07:55:14.260Z,100.00
2022-08-04T07:57:39.568Z,100.00
2022-08-04T07:59:50.001Z,100.00
2022-08-04T08:01:54.957Z,100.00
2022-08-04T08:03:59.302Z,100.00
2022-08-04T08:06:31.297Z,100.00
2022-08-04T08:08:29.595Z,100.00
2022-08-04T08:10:33.197Z,100.00
2022-08-04T08:12:51.147Z,100.00
2022-08-04T08:14:55.960Z,100.00
2022-08-04T08:17:00.419Z,100.00
2022-08-04T08:19:04.699Z,100.00
2022-08-04T08:21:10.019Z,100.00
2022-08-04T08:23:14.422Z,100.00
2022-08-04T08:25:18.224Z,100.00
2022-08-04T08:27:22.412Z,100.00
2022-08-04T08:29:27.459Z,100.00
2022-08-04T08:31:58.439Z,100.00
2022-08-04T08:33:55.272Z,100.00
2022-08-04T08:36:04.862Z,100.00
2022-08-04T08:38:11.463Z,100.00
2022-08-04T08:40:41.186Z,100.00
2022-08-04T08:42:50.679Z,100.00
2022-08-04T08:45:03.002Z,100.00
2022-08-04T08:48:04.739Z,100.00
2022-08-04T08:50:05.083Z,100.00
2022-08-04T08:52:55.373Z,100.00
2022-08-04T08:54:54.905Z,100.00
2022-08-04T08:57:17.241Z,100.00
2022-08-04T08:59:30.059Z,100.00
2022-08-04T09:01:46.851Z,100.00
2022-08-04T09:03:59.737Z,100.00
2022-08-04T09:06:15.777Z,100.00
2022-08-04T09:08:37.834Z,100.00
2022-08-04T09:10:45.319Z,100.00
2022-08-04T09:13:00.741Z,100.00
2022-08-04T09:15:07.492Z,100.00
2022-08-04T09:17:26.038Z,100.00
2022-08-04T09:19:38.629Z,100.00
2022-08-04T09:21:52.238Z,100.00
2022-08-04T09:24:36.715Z,100.00
2022-08-04T09:26:45.943Z,100.00
2022-08-04T09:28:55.274Z,100.00
2022-08-04T09:31:04.062Z,100.00
2022-08-04T09:33:45.302Z,100.00
2022-08-04T09:35:56.282Z,100.00
2022-08-04T09:38:02.862Z,100.00
2022-08-04T09:40:06.534Z,100.00
2022-08-04T09:42:26.095Z,100.00
2022-08-04T09:44:49.905Z,100.00
2022-08-04T09:47:11.272Z,100.00
2022-08-04T09:49:20.854Z,100.00
2022-08-04T09:51:56.835Z,100.00
2022-08-04T09:54:03.615Z,100.00
2022-08-04T09:56:07.317Z,100.00
2022-08-04T09:58:23.899Z,100.00
2022-08-04T10:00:40.963Z,100.00
2022-08-04T10:02:59.153Z,100.00
2022-08-04T10:05:04.693Z,100.00
2022-08-04T10:07:08.632Z,100.00
2022-08-04T10:09:23.997Z,100.00
2022-08-04T10:11:54.442Z,100.00
2022-08-04T10:14:23.247Z,100.00
2022-08-04T10:16:42.570Z,100.00
2022-08-04T10:18:59.468Z,100.00
2022-08-04T10:21:27.995Z,100.00
2022-08-04T10:23:56.592Z,100.00
2022-08-04T10:26:07.995Z,100.00
2022-08-04T10:28:18.464Z,100.00
2022-08-04T10:30:22.852Z,100.00
2022-08-04T10:32:58.378Z,100.00
2022-08-04T10:35:02.121Z,100.00
2022-08-04T10:37:12.425Z,100.00
2022-08-04T10:39:43.688Z,100.00
2022-08-04T10:41:48.420Z,100.00
2022-08-04T10:43:53.144Z,100.00
2022-08-04T10:46:01.925Z,100.00
2022-08-04T10:48:15.914Z,100.00
2022-08-04T10:50:21.208Z,100.00
2022-08-04T10:52:44.867Z,100.00
2022-08-04T10:54:59.501Z,100.00
2022-08-04T10:57:13.194Z,100.00
2022-08-04T10:59:32.192Z,100.00
2022-08-04T11:01:59.491Z,100.00
2022-08-04T11:04:05.294Z,100.00
2022-08-04T11:06:11.002Z,100.00
2022-08-04T11:08:21.868Z,100.00
2022-08-04T11:10:29.051Z,100.00
2022-08-04T11:12:34.193Z,100.00
2022-08-04T11:14:41.296Z,100.00
2022-08-04T11:16:57.051Z,100.00
2022-08-04T11:19:19.413Z,100.00
2022-08-04T11:21:26.947Z,100.00
2022-08-04T11:23:34.911Z,100.00
2022-08-04T11:25:51.147Z,100.00
2022-08-04T11:27:55.454Z,100.00
2022-08-04T11:30:06.677Z,100.00
2022-08-04T11:32:14.321Z,100.00
2022-08-04T11:34:22.732Z,100.00
2022-08-04T11:36:32.352Z,100.00
2022-08-04T11:38:46.403Z,100.00
2022-08-04T11:41:03.255Z,100.00
2022-08-04T11:43:10.019Z,100.00
2022-08-04T11:45:19.568Z,100.00
2022-08-04T11:47:27.288Z,100.00
2022-08-04T11:49:57.063Z,100.00
2022-08-04T11:52:01.512Z,100.00
2022-08-04T11:54:08.660Z,100.00
2022-08-04T11:56:16.780Z,100.00
2022-08-04T11:58:38.984Z,100.00
2022-08-04T12:00:46.956Z,100.00
2022-08-04T12:03:13.441Z,100.00
2022-08-04T12:05:23.388Z,100.00
2022-08-04T12:07:45.515Z,100.00
2022-08-04T12:10:14.937Z,100.00
2022-08-04T12:12:44.696Z,100.00
2022-08-04T12:14:57.854Z,100.00
2022-08-04T12:17:03.045Z,100.00
2022-08-04T12:19:15.512Z,100.00
2022-08-04T12:21:37.570Z,100.00
2022-08-04T12:23:42.138Z,100.00
2022-08-04T12:25:48.087Z,100.00
2022-08-04T12:28:09.452Z,100.00
2022-08-04T12:31:00.654Z,100.00
2022-08-04T12:33:02.314Z,100.00
2022-08-04T12:35:13.472Z,100.00
2022-08-04T12:37:27.724Z,100.00
2022-08-04T12:39:32.027Z,100.00
2022-08-04T12:41:40.602Z,100.00
2022-08-04T12:43:48.469Z,100.00
2022-08-04T12:45:53.440Z,100.00
2022-08-04T12:48:01.103Z,100.00
2022-08-04T12:50:06.333Z,100.00
2022-08-04T12:52:10.652Z,100.00
2022-08-04T12:54:28.672Z,100.00
2022-08-04T12:56:33.808Z,100.00
2022-08-04T12:58:43.385Z,100.00
2022-08-04T13:02:10.028Z,100.00
2022-08-04T13:03:37.998Z,100.00
2022-08-04T13:05:58.094Z,100.00
2022-08-04T13:08:02.976Z,100.00
2022-08-04T13:10:14.221Z,100.00
2022-08-04T13:12:32.445Z,100.00
2022-08-04T13:14:38.722Z,100.00
2022-08-04T13:16:46.409Z,100.00
2022-08-04T13:18:50.840Z,100.00
2022-08-04T13:20:54.755Z,100.00
2022-08-04T13:23:21.720Z,100.00
2022-08-04T13:26:45.145Z,100.00
2022-08-04T13:27:55.362Z,100.00
2022-08-04T13:30:03.680Z,100.00
2022-08-04T13:32:08.154Z,100.00
2022-08-04T13:34:19.196Z,100.00
2022-08-04T13:36:31.991Z,100.00
2022-08-04T13:38:37.636Z,100.00
2022-08-04T13:40:42.861Z,100.00
2022-08-04T13:42:52.881Z,100.00
2022-08-04T13:44:59.720Z,100.00
2022-08-04T13:47:14.493Z,100.00
2022-08-04T13:49:48.428Z,100.00
2022-08-04T13:51:57.944Z,100.00
2022-08-04T13:54:03.961Z,100.00
2022-08-04T13:56:11.497Z,100.00
2022-08-04T13:58:21.226Z,100.00
2022-08-04T14:00:29.383Z,100.00
2022-08-04T14:02:53.987Z,100.00
2022-08-04T14:05:03.141Z,100.00
2022-08-04T14:07:17.950Z,100.00
2022-08-04T14:09:35.815Z,100.00
2022-08-04T14:12:09.085Z,100.00
2022-08-04T14:14:19.574Z,100.00
2022-08-04T14:16:24.128Z,100.00
2022-08-04T14:18:29.742Z,100.00
2022-08-04T14:20:33.961Z,100.00
2022-08-04T14:22:38.036Z,100.00
2022-08-04T14:24:42.193Z,100.00
2022-08-04T14:26:45.946Z,100.00
2022-08-04T14:29:24.951Z,100.00
2022-08-04T14:31:17.078Z,100.00
2022-08-04T14:34:03.175Z,100.00
2022-08-04T14:35:57.471Z,100.00
2022-08-04T14:38:05.207Z,100.00
2022-08-04T14:40:30.355Z,100.00
2022-08-04T14:42:55.530Z,100.00
2022-08-04T14:45:05.082Z,100.00
2022-08-04T14:47:13.464Z,100.00
2022-08-04T14:49:17.492Z,100.00
2022-08-04T14:51:26.140Z,100.00
2022-08-04T14:53:48.401Z,100.00
2022-08-04T14:55:52.999Z,100.00
2022-08-04T14:58:34.400Z,100.00
2022-08-04T15:00:30.613Z,100.00
2022-08-04T15:02:36.935Z,100.00
2022-08-04T15:04:41.703Z,100.00
2022-08-04T15:06:49.020Z,100.00
2022-08-04T15:08:53.899Z,100.00
2022-08-04T15:11:03.958Z,100.00
2022-08-04T15:13:14.411Z,100.00
2022-08-04T15:15:35.774Z,100.00
2022-08-04T15:17:41.257Z,100.00
2022-08-04T15:19:55.454Z,100.00
2022-08-04T15:22:00.638Z,100.00
2022-08-04T15:24:04.577Z,100.00
2022-08-04T15:26:11.092Z,100.00
2022-08-04T15:28:19.389Z,100.00
2022-08-04T15:30:23.991Z,100.00
2022-08-04T15:32:28.277Z,100.00
2022-08-04T15:34:52.241Z,100.00
2022-08-04T15:36:58.744Z,100.00
2022-08-04T15:39:08.045Z,100.00
2022-08-04T15:41:33.216Z,100.00
2022-08-04T15:43:59.673Z,100.00
2022-08-04T15:46:41.812Z,100.00
2022-08-04T15:48:30.952Z,100.00
2022-08-04T15:50:34.492Z,100.00
2022-08-04T15:53:13.547Z,100.00
2022-08-04T15:55:32.677Z,100.00
2022-08-04T15:57:57.220Z,100.00
2022-08-04T16:00:02.390Z,100.00
2022-08-04T16:02:41.130Z,100.00
2022-08-04T16:04:45.439Z,100.00
2022-08-04T16:06:49.309Z,100.00
2022-08-04T16:08:57.906Z,100.00
2022-08-04T16:11:06.057Z,100.00
2022-08-04T16:13:16.747Z,100.00
2022-08-04T16:15:39.358Z,100.00
2022-08-04T16:17:43.120Z,100.00
2022-08-04T16:20:03.115Z,100.00
2022-08-04T16:22:09.939Z,100.00
2022-08-04T16:24:16.059Z,100.00
2022-08-04T16:26:38.178Z,100.00
2022-08-04T16:28:49.568Z,100.00
2022-08-04T16:31:00.955Z,100.00
2022-08-04T16:33:16.303Z,100.00
2022-08-04T16:35:22.647Z,100.00
2022-08-04T16:37:36.649Z,100.00
2022-08-04T16:39:51.059Z,100.00
2022-08-04T16:41:55.602Z,100.00
2022-08-04T16:44:43.160Z,100.00
2022-08-04T16:47:21.749Z,100.00
2022-08-04T16:49:08.328Z,100.00
2022-08-04T16:51:14.183Z,100.00
2022-08-04T16:53:52.266Z,100.00
2022-08-04T16:55:47.241Z,100.00
2022-08-04T16:57:52.511Z,100.00
2022-08-04T16:59:56.419Z,100.00
2022-08-04T17:02:05.646Z,100.00
2022-08-04T17:04:32.269Z,100.00
2022-08-04T17:06:43.622Z,100.00
2022-08-04T17:08:48.068Z,100.00
2022-08-04T17:10:51.830Z,100.00
2022-08-04T17:13:14.381Z,100.00
2022-08-04T17:15:25.648Z,100.00
2022-08-04T17:17:29.340Z,100.00
2022-08-04T17:19:54.652Z,100.00
2022-08-04T17:22:04.750Z,100.00
2022-08-04T17:24:16.594Z,100.00
2022-08-04T17:26:40.299Z,100.00
2022-08-04T17:28:54.794Z,100.00
2022-08-04T17:30:59.907Z,100.00
2022-08-04T17:33:07.315Z,100.00
2022-08-04T17:35:18.685Z,100.00
2022-08-04T17:37:40.906Z,100.00
2022-08-04T17:39:54.177Z,100.00
2022-08-04T17:41:58.342Z,100.00
2022-08-04T17:44:08.190Z,100.00
2022-08-04T17:46:28.597Z,100.00
2022-08-04T17:48:42.923Z,100.00
2022-08-04T17:50:46.990Z,100.00
2022-08-04T17:53:12.225Z,100.00
2022-08-04T17:55:20.572Z,100.00
2022-08-04T17:57:25.814Z,100.00
2022-08-04T17:59:49.639Z,100.00
2022-08-04T18:02:08.725Z,100.00
2022-08-04T18:04:31.095Z,100.00
2022-08-04T18:06:34.970Z,100.00
2022-08-04T18:08:46.029Z,100.00
2022-08-04T18:10:58.911Z,100.00
2022-08-04T18:13:14.254Z,100.00
2022-08-04T18:15:26.587Z,100.00
2022-08-04T18:18:22.048Z,100.00
2022-08-04T18:20:15.433Z,100.00
2022-08-04T18:22:28.140Z,100.00
2022-08-04T18:24:34.222Z,100.00
2022-08-04T18:26:56.813Z,100.00
2022-08-04T18:29:00.524Z,100.00
2022-08-04T18:31:08.199Z,100.00
2022-08-04T18:33:40.392Z,100.00
2022-08-04T18:36:33.229Z,100.00
2022-08-04T18:38:06.591Z,100.00
2022-08-04T18:40:26.655Z,100.00
2022-08-04T18:42:37.486Z,100.00
2022-08-04T18:44:51.927Z,100.00
2022-08-04T18:46:57.285Z,100.00
2022-08-04T18:50:59.219Z,100.00
2022-08-04T18:51:49.105Z,100.00
2022-08-04T18:53:58.666Z,100.00
2022-08-04T18:56:02.950Z,100.00
2022-08-04T18:58:11.801Z,100.00
2022-08-04T19:00:19.795Z,100.00
2022-08-04T19:02:26.411Z,100.00
2022-08-04T19:04:33.698Z,100.00
2022-08-04T19:06:42.520Z,100.00
2022-08-04T19:08:48.655Z,100.00
2022-08-04T19:10:59.427Z,100.00
2022-08-04T19:13:03.374Z,100.00
2022-08-04T19:15:34.520Z,100.00
2022-08-04T19:17:52.821Z,100.00
2022-08-04T19:20:01.353Z,100.00
2022-08-04T19:24:34.637Z,100.00
2022-08-04T19:26:39.153Z,100.00
2022-08-04T19:28:43.263Z,100.00
2022-08-04T19:30:51.375Z,100.00
2022-08-04T19:32:56.250Z,100.00
2022-08-04T19:35:00.431Z,100.00
2022-08-04T19:37:04.559Z,100.00
2022-08-04T19:39:11.789Z,100.00
2022-08-04T19:41:15.704Z,100.00
2022-08-04T19:43:22.916Z,100.00
2022-08-04T19:45:41.744Z,100.00
2022-08-04T19:48:21.473Z,100.00
2022-08-04T19:50:12.782Z,100.00
2022-08-04T19:52:34.132Z,100.00
2022-08-04T19:54:40.813Z,100.00
2022-08-04T19:56:48.674Z,100.00
2022-08-04T19:58:52.265Z,100.00
2022-08-04T20:00:57.502Z,100.00
2022-08-04T20:03:11.692Z,100.00
2022-08-04T20:05:19.096Z,100.00
2022-08-04T20:07:43.174Z,100.00
2022-08-04T20:09:53.413Z,100.00
2022-08-04T20:11:58.449Z,100.00
2022-08-04T20:14:02.398Z,100.00
2022-08-04T20:16:29.233Z,98.91
2022-08-04T20:18:35.770Z,100.00
2022-08-04T20:20:57.437Z,100.00
2022-08-04T20:23:01.394Z,98.97
2022-08-04T20:25:18.108Z,96.67
2022-08-04T20:27:51.397Z,91.16
2022-08-04T20:29:57.180Z,91.32
2022-08-04T20:32:05.606Z,85.54
2022-08-04T20:34:13.281Z,88.77
2022-08-04T20:36:21.491Z,82.79
2022-08-04T20:38:33.283Z,82.06
2022-08-04T20:40:37.685Z,82.17
2022-08-04T20:42:41.369Z,79.69
2022-08-04T20:44:48.869Z,79.75
2022-08-04T20:46:52.541Z,80.93
2022-08-04T20:48:56.283Z,81.57
2022-08-04T20:51:01.273Z,82.92
2022-08-04T20:53:16.805Z,85.27
2022-08-04T20:55:21.332Z,81.51
2022-08-04T20:57:49.600Z,80.38
2022-08-04T20:59:59.605Z,74.40
2022-08-04T21:02:05.066Z,79.87
2022-08-04T21:04:28.822Z,71.36
2022-08-04T21:06:32.979Z,70.64
2022-08-04T21:08:37.039Z,68.92
2022-08-04T21:10:41.191Z,71.59
2022-08-04T21:12:51.771Z,69.94
2022-08-04T21:14:56.162Z,66.06
2022-08-04T21:17:00.949Z,71.91
2022-08-04T21:19:06.438Z,69.76
2022-08-04T21:21:20.253Z,66.15
2022-08-04T21:23:26.639Z,64.29
2022-08-04T21:25:30.535Z,67.10
2022-08-04T21:27:39.410Z,69.47
2022-08-04T21:29:43.714Z,58.53
2022-08-04T21:31:51.091Z,60.30
2022-08-04T21:33:57.618Z,64.44
2022-08-04T21:36:02.579Z,55.23
2022-08-04T21:38:17.197Z,57.10
2022-08-04T21:40:32.580Z,58.25
2022-08-04T21:42:42.603Z,56.03
2022-08-04T21:44:53.666Z,56.17
2022-08-04T21:46:58.110Z,55.01
2022-08-04T21:49:02.445Z,54.50
2022-08-04T21:51:59.399Z,57.64
2022-08-04T21:53:39.747Z,61.40
2022-08-04T21:56:06.773Z,54.77
2022-08-04T21:58:09.140Z,56.72
2022-08-04T22:00:19.480Z,56.76
2022-08-04T22:02:23.591Z,57.65
2022-08-04T22:04:34.365Z,57.47
2022-08-04T22:06:51.624Z,52.83
2022-08-04T22:08:56.855Z,57.60
2022-08-04T22:11:00.885Z,53.90
2022-08-04T22:13:08.004Z,57.60
2022-08-04T22:15:23.299Z,56.36
2022-08-04T22:17:38.903Z,50.09
2022-08-04T22:19:55.595Z,48.97
2022-08-04T22:22:00.584Z,49.11
2022-08-04T22:24:07.883Z,50.85
2022-08-04T22:26:20.159Z,48.82
2022-08-04T22:28:30.502Z,53.63
2022-08-04T22:30:36.930Z,51.16
2022-08-04T22:32:41.764Z,49.88
2022-08-04T22:34:53.533Z,47.95
2022-08-04T22:37:00.217Z,47.41
2022-08-04T22:39:07.281Z,50.88
2022-08-04T22:41:13.261Z,47.91
2022-08-04T22:43:32.328Z,49.48
2022-08-04T22:45:44.643Z,50.53
2022-08-04T22:47:52.716Z,48.78
2022-08-04T22:50:21.725Z,49.67
2022-08-04T22:52:27.818Z,48.90
2022-08-04T22:54:38.635Z,51.41
2022-08-04T22:56:45.475Z,51.21
2022-08-04T22:58:51.185Z,50.86
2022-08-04T23:00:59.757Z,48.56
2022-08-04T23:03:05.430Z,49.26
2022-08-04T23:05:17.208Z,53.01
2022-08-04T23:07:24.133Z,51.19
2022-08-04T23:09:50.711Z,49.94
2022-08-04T23:12:22.209Z,51.42
2022-08-04T23:14:19.324Z,50.58
2022-08-04T23:16:24.688Z,51.25
2022-08-04T23:18:28.437Z,50.90
2022-08-04T23:20:39.410Z,52.33
2022-08-04T23:22:43.174Z,52.79
2022-08-04T23:24:47.750Z,54.33
2022-08-04T23:26:51.325Z,56.08
2022-08-04T23:28:56.597Z,59.05
2022-08-04T23:31:00.339Z,58.67
2022-08-04T23:33:06.855Z,63.28
2022-08-04T23:35:15.376Z,66.34
2022-08-04T23:37:19.500Z,68.45
2022-08-04T23:39:23.497Z,72.80
2022-08-04T23:41:54.419Z,75.86
2022-08-04T23:43:55.698Z,78.40
2022-08-04T23:46:07.497Z,83.73
2022-08-04T23:48:18.480Z,83.05
2022-08-04T23:50:23.596Z,86.09
2022-08-04T23:52:29.673Z,86.50
2022-08-04T23:54:34.224Z,87.97
2022-08-04T23:56:39.885Z,88.58
2022-08-04T23:58:48.233Z,87.98
